createdAt,value
2022-08-07T00:01:01.406Z,21.50
2022-08-07T00:06:29.588Z,21.47
2022-08-07T00:11:35.335Z,21.54
2022-08-07T00:16:49.560Z,21.58
2022-08-07T00:21:56.195Z,21.14
2022-08-07T00:27:07.425Z,21.33
2022-08-07T00:32:13.524Z,21.53
2022-08-07T00:37:16.299Z,21.52
2022-08-07T00:42:17.813Z,21.44
2022-08-07T00:48:09.181Z,21.47
2022-08-07T00:52:41.183Z,21.04
2022-08-07T00:57:55.096Z,21.31
2022-08-07T01:02:57.515Z,21.40
2022-08-07T01:07:59.582Z,21.47
2022-08-07T01:13:01.207Z,21.26
2022-08-07T01:18:04.611Z,21.16
2022-08-07T01:23:12.732Z,21.19
2022-08-07T01:28:14.638Z,21.44
2022-08-07T01:33:16.666Z,21.25
2022-08-07T01:38:25.022Z,20.55
2022-08-07T01:43:34.673Z,20.84
2022-08-07T01:48:46.444Z,20.84
2022-08-07T01:54:12.761Z,21.14
2022-08-07T01:59:52.350Z,21.40
2022-08-07T02:05:04.691Z,21.43
2022-08-07T02:10:06.716Z,21.61
2022-08-07T02:15:09.091Z,21.70
2022-08-07T02:20:19.702Z,21.07
2022-08-07T02:25:21.494Z,21.47
2022-08-07T02:30:42.996Z,21.46
2022-08-07T02:36:28.182Z,21.41
2022-08-07T02:41:06.371Z,21.40
2022-08-07T02:46:09.647Z,21.58
2022-08-07T02:51:29.105Z,21.23
2022-08-07T02:56:34.708Z,21.24
2022-08-07T03:01:40.216Z,21.25
2022-08-07T03:06:45.936Z,21.08
2022-08-07T03:11:51.640Z,20.95
2022-08-07T03:16:53.614Z,20.81
2022-08-07T03:21:55.158Z,20.75
2022-08-07T03:27:00.525Z,20.65
2022-08-07T03:32:03.500Z,21.05
2022-08-07T03:37:12.387Z,20.81
2022-08-07T03:42:14.673Z,20.66
2022-08-07T03:47:16.224Z,20.63
2022-08-07T03:52:26.134Z,20.91
2022-08-07T03:58:33.614Z,20.97
2022-08-07T04:02:50.966Z,21.04
2022-08-07T04:07:58.323Z,20.93
2022-08-07T04:13:01.963Z,20.90
2022-08-07T04:18:56.262Z,20.83
2022-08-07T04:23:25.748Z,20.93
2022-08-07T04:28:45.587Z,20.80
2022-08-07T04:33:47.564Z,20.66
2022-08-07T04:38:56.718Z,20.49
2022-08-07T04:44:12.543Z,20.63
2022-08-07T04:49:27.357Z,20.87
2022-08-07T04:54:36.852Z,20.99
2022-08-07T05:00:11.170Z,20.87
2022-08-07T05:05:53.436Z,21.04
2022-08-07T05:10:44.066Z,21.01
2022-08-07T05:15:49.897Z,21.15
2022-08-07T05:20:54.860Z,21.27
2022-08-07T05:26:12.949Z,21.10
2022-08-07T05:31:20.201Z,20.31
2022-08-07T05:36:22.358Z,21.28
2022-08-07T05:41:24.415Z,21.47
2022-08-07T05:46:47.698Z,21.52
2022-08-07T05:51:53.435Z,21.49
2022-08-07T05:56:55.463Z,21.52
2022-08-07T06:01:58.199Z,21.81
2022-08-07T06:07:05.779Z,21.85
2022-08-07T06:12:07.709Z,22.00
2022-08-07T06:17:10.115Z,22.09
2022-08-07T06:22:24.010Z,22.11
2022-08-07T06:27:59.718Z,22.23
2022-08-07T06:32:50.241Z,22.65
2022-08-07T06:37:52.944Z,22.65
2022-08-07T06:42:55.881Z,22.36
2022-08-07T06:47:59.134Z,22.94
2022-08-07T06:53:01.148Z,23.00
2022-08-07T06:58:09.432Z,22.92
2022-08-07T07:03:14.396Z,22.78
2022-08-07T07:08:25.612Z,23.13
2022-08-07T07:13:55.325Z,23.25
2022-08-07T07:19:40.960Z,23.49
2022-08-07T07:24:26.110Z,23.33
2022-08-07T07:29:56.107Z,23.31
2022-08-07T07:34:52.490Z,23.11
2022-08-07T07:39:55.725Z,23.42
2022-08-07T07:44:57.316Z,23.60
2022-08-07T07:50:34.755Z,23.80
2022-08-07T07:55:20.403Z,23.98
2022-08-07T08:00:29.507Z,23.97
2022-08-07T08:05:51.049Z,23.91
2022-08-07T08:10:57.006Z,23.76
2022-08-07T08:16:00.710Z,22.98
2022-08-07T08:21:02.526Z,23.87
2022-08-07T08:26:25.120Z,23.83
2022-08-07T08:31:58.416Z,24.26
2022-08-07T08:36:56.215Z,24.15
2022-08-07T08:42:03.532Z,24.59
2022-08-07T08:47:26.842Z,24.62
2022-08-07T08:52:36.039Z,24.77
2022-08-07T08:57:50.484Z,24.58
2022-08-07T09:02:58.654Z,24.58
2022-08-07T09:08:28.596Z,24.92
2022-08-07T09:13:47.004Z,25.19
2022-08-07T09:19:03.369Z,25.24
2022-08-07T09:24:55.997Z,25.36
2022-08-07T09:30:03.989Z,25.19
2022-08-07T09:36:04.588Z,24.10
2022-08-07T09:41:27.906Z,25.18
2022-08-07T09:47:50.786Z,24.53
2022-08-07T09:52:51.684Z,25.22
2022-08-07T09:57:56.240Z,25.47
2022-08-07T10:04:05.461Z,25.90
2022-08-07T10:08:59.439Z,25.87
2022-08-07T10:14:39.686Z,25.66
2022-08-07T10:20:12.961Z,25.69
2022-08-07T10:25:45.490Z,25.89
2022-08-07T10:31:21.250Z,26.05
2022-08-07T10:36:36.283Z,25.72
2022-08-07T10:41:46.508Z,26.11
2022-08-07T10:47:14.264Z,25.77
2022-08-07T10:52:21.759Z,25.84
2022-08-07T10:58:02.385Z,26.06
2022-08-07T11:03:12.623Z,25.85
2022-08-07T11:08:30.456Z,26.28
2022-08-07T11:14:46.081Z,25.76
2022-08-07T11:19:42.376Z,26.37
2022-08-07T11:24:47.326Z,26.59
2022-08-07T11:30:18.752Z,26.56
2022-08-07T11:35:31.233Z,26.87
2022-08-07T11:41:07.803Z,26.02
2022-08-07T11:46:21.394Z,26.82
2022-08-07T11:51:50.459Z,26.71
2022-08-07T11:57:12.833Z,26.91
2022-08-07T12:02:31.000Z,27.15
2022-08-07T12:07:38.682Z,27.25
2022-08-07T12:12:43.906Z,27.12
2022-08-07T12:18:08.242Z,27.55
2022-08-07T12:24:05.537Z,27.37
2022-08-07T12:29:11.714Z,26.98
2022-08-07T12:34:13.307Z,28.00
2022-08-07T12:39:42.567Z,27.62
2022-08-07T12:44:36.919Z,27.76
2022-08-07T12:50:04.447Z,28.17
2022-08-07T12:55:40.579Z,27.85
2022-08-07T13:00:53.551Z,28.58
2022-08-07T13:06:29.431Z,27.27
2022-08-07T13:12:03.552Z,27.32
2022-08-07T13:17:11.999Z,27.00
2022-08-07T13:22:19.771Z,27.94
2022-08-07T13:28:12.481Z,28.38
2022-08-07T13:34:33.647Z,28.70
2022-08-07T13:38:48.794Z,28.67
2022-08-07T13:43:52.769Z,28.39
2022-08-07T13:48:58.547Z,28.72
2022-08-07T13:54:09.530Z,27.62
2022-08-07T13:59:21.949Z,28.25
2022-08-07T14:04:29.806Z,28.08
2022-08-07T14:10:00.918Z,27.79
2022-08-07T14:15:04.987Z,28.57
2022-08-07T14:20:43.085Z,28.58
2022-08-07T14:25:39.519Z,28.48
2022-08-07T14:30:47.835Z,28.71
2022-08-07T14:35:57.328Z,28.02
2022-08-07T14:41:12.433Z,28.38
2022-08-07T14:46:17.601Z,27.95
2022-08-07T14:51:21.195Z,27.83
2022-08-07T14:56:30.327Z,26.95
2022-08-07T15:01:42.330Z,27.51
2022-08-07T15:06:47.629Z,27.44
2022-08-07T15:12:01.298Z,26.20
2022-08-07T15:17:04.722Z,26.86
2022-08-07T15:22:23.134Z,27.07
2022-08-07T15:27:34.150Z,26.83
2022-08-07T15:38:17.236Z,26.60
2022-08-07T15:43:53.850Z,25.92
2022-08-07T15:49:11.894Z,26.13
2022-08-07T15:54:11.922Z,26.29
2022-08-07T15:59:19.982Z,26.01
2022-08-07T16:04:42.167Z,26.41
2022-08-07T16:09:53.924Z,25.37
2022-08-07T16:21:53.490Z,25.88
2022-08-07T16:26:30.728Z,26.08
2022-08-07T16:31:51.565Z,25.90
2022-08-07T16:38:05.832Z,25.12
2022-08-07T16:42:55.898Z,25.20
2022-08-07T16:48:58.238Z,25.81
2022-08-07T16:54:06.708Z,25.99
2022-08-07T16:59:19.832Z,25.73
2022-08-07T17:04:24.474Z,25.91
2022-08-07T17:10:07.091Z,25.80
2022-08-07T17:15:15.635Z,25.70
2022-08-07T17:20:31.871Z,25.72
2022-08-07T17:25:47.440Z,25.82
2022-08-07T17:31:00.741Z,25.70
2022-08-07T17:36:26.086Z,25.33
2022-08-07T17:42:02.086Z,25.22
2022-08-07T17:47:17.147Z,25.00
2022-08-07T17:52:36.139Z,24.92
2022-08-07T17:57:56.544Z,24.37
2022-08-07T18:03:18.302Z,24.19
2022-08-07T18:08:26.079Z,23.89
2022-08-07T18:13:48.713Z,23.96
2022-08-07T18:21:11.869Z,24.08
2022-08-07T18:24:33.027Z,23.79
2022-08-07T18:30:07.453Z,23.58
2022-08-07T18:35:17.364Z,23.39
2022-08-07T18:40:42.748Z,23.15
2022-08-07T18:46:24.870Z,23.23
2022-08-07T18:52:35.608Z,23.09
2022-08-07T18:57:30.682Z,23.20
2022-08-07T19:02:45.492Z,22.76
2022-08-07T19:07:59.117Z,23.05
2022-08-07T19:13:49.927Z,23.28
2022-08-07T19:18:58.318Z,23.14
2022-08-07T19:24:02.310Z,23.27
2022-08-07T19:30:56.463Z,23.16
2022-08-07T19:34:33.874Z,23.21
2022-08-07T19:39:55.997Z,22.88
2022-08-07T19:45:08.566Z,22.63
2022-08-07T19:50:42.964Z,22.52
2022-08-07T19:55:56.323Z,22.41
2022-08-07T20:00:56.096Z,22.70
2022-08-07T20:06:02.104Z,22.54
2022-08-07T20:11:09.967Z,22.42
2022-08-07T20:16:32.014Z,22.80
2022-08-07T20:21:42.316Z,22.57
2022-08-07T20:26:52.295Z,22.65
2022-08-07T20:31:56.589Z,22.90
2022-08-07T20:37:00.223Z,22.83
2022-08-07T20:42:07.055Z,22.80
2022-08-07T20:47:12.517Z,22.78
2022-08-07T20:52:21.167Z,22.61
2022-08-07T20:57:47.342Z,22.47
2022-08-07T21:03:01.764Z,22.72
2022-08-07T21:08:08.366Z,22.70
2022-08-07T21:13:16.719Z,22.50
2022-08-07T21:18:27.790Z,22.72
2022-08-07T21:23:50.531Z,22.70
2022-08-07T21:28:55.382Z,22.75
2022-08-07T21:34:12.356Z,22.52
2022-08-07T21:39:46.031Z,22.52
2022-08-07T21:44:44.776Z,22.34
2022-08-07T21:50:02.053Z,22.53
2022-08-07T21:55:30.231Z,22.46
2022-08-07T22:00:32.435Z,22.53
2022-08-07T22:05:45.138Z,22.67
2022-08-07T22:10:57.967Z,22.66
2022-08-07T22:16:39.489Z,22.63
2022-08-07T22:22:01.935Z,22.69
2022-08-07T22:27:10.275Z,22.61
2022-08-07T22:32:27.010Z,22.63
2022-08-07T22:38:02.005Z,22.63
2022-08-07T22:43:17.968Z,22.61
2022-08-07T22:48:55.966Z,22.67
2022-08-07T22:54:22.358Z,22.77
2022-08-07T22:59:46.840Z,22.91
2022-08-07T23:06:09.841Z,22.81
2022-08-07T23:10:42.029Z,22.53
2022-08-07T23:16:44.377Z,22.82
2022-08-07T23:21:30.231Z,22.65
2022-08-07T23:27:02.828Z,22.69
2022-08-07T23:34:23.333Z,22.82
2022-08-07T23:38:10.865Z,22.85
2022-08-07T23:43:40.902Z,22.86
2022-08-07T23:49:07.101Z,22.99
2022-08-07T23:54:54.371Z,22.91
